BZL weather

Barisal Airport
Barisal, Barisal Division, Bangladesh

Public forecast

Using degrees Celsius for public forecast. Weather courtesy of forecast.io.

METAR (pilot weather report)

Closest report is Hazrat Shahjalal International Airport, 62.8 nm (116.3 km) N. Retrieved 2019/08/21 19:30 UTC (20 minutes ago):

VGHS 211930Z 19003KT 4000 HZ SCT015 BKN100 30/25 Q1003 NOSIG

TAF (pilot weather forecast)

Closest forecast is Hazrat Shahjalal International Airport, 62.8 nm (116.3 km) N. Retrieved 2019/08/21 18:00 UTC (2 hours ago):

TAF VGHS 211700Z 2118/2224 12006KT 3500 HZ SCT012 BKN100 TEMPO 2118/2121 16025KT 2000 RA/TSRA BKN008 FEW025CB OVC090 BECMG 2123/2201 14005KT 3200 HZ SCT012 BKN100 BECMG 2203/2205 16008KT 4000 HZ SCT015 BKN100 TEMPO 2206/2212 15025KT 2000 RA/TSRA BKN008 FEW025CB OVC090